KRPH

Graham Municipal Airport

Graham, Texas, USA
METAR KRPH 160550Z AUTO 16003KT 10SM CLR 28/19 A2993 RMK AO2 T02760193 10352 20275 403700230
Observed Flight Rules
Aug-16 @ 05:50 UTC (26 minutes ago) Visual Flight Rules
Wind Visibility Clouds
160° at 3 knots 10 miles
  • Clear skies
Temperatures Readings
Current 28°C / 82°F
Dewpoint 19°C / 66°F
Humidity 58%
Altimeter 29.93" Hg
Pressure 1014 hPa
Elevation 342
METAR KRPH 160550Z AUTO 16003KT 10SM CLR 28/19 A2993 RMK AO2 T02760193 10352 20275 403700230
Observed Flight Rules
Aug-16 @ 05:50 UTC
(26 minutes ago)
VFR
Wind Visibility
160° at 3 knots 10 miles
Clouds
  • Clear skies
Temperature Dewpoint
28°C / 82°F 19°C / 66°F
Humidity Altimeter Pressure
58% 29.93" Hg 1014 hPa